ADDS METAR Data

Data at: 0253 UTC 21 Jun 2018

METAR for:KSAN (San Diego Intl Arpt, CA, US)
Text:KSAN 210151Z 17005KT 10SM OVC013 18/14 A2995 RMK AO2 SLP142 T01830144
Temperature: 18.3°C ( 65°F)
Dewpoint: 14.4°C ( 58°F) [RH = 78%]
Pressure (altimeter):29.95 inches Hg (1014.3 mb) [Sea level pressure: 1014.2 mb]
Winds:from the S (170 degrees) at 6 MPH (5 knots; 2.6 m/s)
Visibility:10 or more sm (16+ km)
Ceiling:1300 feet AGL
Clouds: overcast cloud deck at 1300 feet AGL